sensor_id;sensor_type;location;lat;lon;timestamp;temperature;humidity
3208;DHT22;1616;52.394;9.756;2023-03-01T00:00:46;-0.80;1.00
3208;DHT22;1616;52.394;9.756;2023-03-01T00:03:12;-0.90;1.00
3208;DHT22;1616;52.394;9.756;2023-03-01T00:05:46;-0.90;1.00
3208;DHT22;1616;52.394;9.756;2023-03-01T00:08:12;-0.90;1.00
3208;DHT22;1616;52.394;9.756;2023-03-01T00:10:39;-0.90;1.00
3208;DHT22;1616;52.394;9.756;2023-03-01T00:13:05;-0.90;1.00
3208;DHT22;1616;52.394;9.756;2023-03-01T00:15:33;-0.90;1.00
3208;DHT22;1616;52.394;9.756;2023-03-01T00:18:02;-0.90;1.00
3208;DHT22;1616;52.394;9.756;2023-03-01T00:20:28;-1.10;1.00
3208;DHT22;1616;52.394;9.756;2023-03-01T00:22:53;-1.10;1.00
3208;DHT22;1616;52.394;9.756;2023-03-01T00:25:20;-1.20;1.00
3208;DHT22;1616;52.394;9.756;2023-03-01T00:27:46;-1.10;1.00
3208;DHT22;1616;52.394;9.756;2023-03-01T00:30:12;-1.20;1.00
3208;DHT22;1616;52.394;9.756;2023-03-01T00:32:38;-1.20;1.00
3208;DHT22;1616;52.394;9.756;2023-03-01T00:35:04;-0.40;1.00
3208;DHT22;1616;52.394;9.756;2023-03-01T00:37:31;-1.20;1.00
3208;DHT22;1616;52.394;9.756;2023-03-01T00:39:56;-1.20;1.00
3208;DHT22;1616;52.394;9.756;2023-03-01T00:42:22;-1.30;1.00
3208;DHT22;1616;52.394;9.756;2023-03-01T00:44:47;-1.20;1.00
3208;DHT22;1616;52.394;9.756;2023-03-01T00:47:13;-1.20;1.00
3208;DHT22;1616;52.394;9.756;2023-03-01T00:49:40;-1.30;1.00
3208;DHT22;1616;52.394;9.756;2023-03-01T00:52:05;-1.20;1.00
3208;DHT22;1616;52.394;9.756;2023-03-01T00:54:31;-1.30;1.00
3208;DHT22;1616;52.394;9.756;2023-03-01T00:56:57;-1.30;1.00
3208;DHT22;1616;52.394;9.756;2023-03-01T00:59:22;-1.30;1.00
3208;DHT22;1616;52.394;9.756;2023-03-01T01:01:48;-1.30;1.00
3208;DHT22;1616;52.394;9.756;2023-03-01T01:04:15;-1.40;1.00
3208;DHT22;1616;52.394;9.756;2023-03-01T01:06:43;-1.40;1.00
3208;DHT22;1616;52.394;9.756;2023-03-01T01:09:12;-1.40;1.00
3208;DHT22;1616;52.394;9.756;2023-03-01T01:11:49;-1.50;1.00
3208;DHT22;1616;52.394;9.756;2023-03-01T01:14:15;-1.50;1.00
3208;DHT22;1616;52.394;9.756;2023-03-01T01:16:41;-1.60;1.00
3208;DHT22;1616;52.394;9.756;2023-03-01T01:19:07;-1.60;1.00
3208;DHT22;1616;52.394;9.756;2023-03-01T01:21:32;-1.60;1.00
3208;DHT22;1616;52.394;9.756;2023-03-01T01:23:58;-1.60;1.00
3208;DHT22;1616;52.394;9.756;2023-03-01T01:26:29;-1.60;1.00
3208;DHT22;1616;52.394;9.756;2023-03-01T01:28:55;-1.60;1.00
3208;DHT22;1616;52.394;9.756;2023-03-01T01:31:23;-1.70;1.00
3208;DHT22;1616;52.394;9.756;2023-03-01T01:33:49;-1.70;1.00
3208;DHT22;1616;52.394;9.756;2023-03-01T01:36:16;-1.80;1.00
3208;DHT22;1616;52.394;9.756;2023-03-01T01:38:42;-1.80;1.00
3208;DHT22;1616;52.394;9.756;2023-03-01T01:41:09;-1.80;1.00
3208;DHT22;1616;52.394;9.756;2023-03-01T01:43:48;-1.80;1.00
3208;DHT22;1616;52.394;9.756;2023-03-01T01:46:33;-1.80;1.00
3208;DHT22;1616;52.394;9.756;2023-03-01T01:51:45;-1.80;1.00
3208;DHT22;1616;52.394;9.756;2023-03-01T01:54:20;-1.90;1.00
3208;DHT22;1616;52.394;9.756;2023-03-01T01:56:55;-1.90;1.00
3208;DHT22;1616;52.394;9.756;2023-03-01T01:59:23;-1.90;1.00
3208;DHT22;1616;52.394;9.756;2023-03-01T02:01:51;-1.90;1.00
3208;DHT22;1616;52.394;9.756;2023-03-01T02:04:17;-2.00;1.00
3208;DHT22;1616;52.394;9.756;2023-03-01T02:07:06;-2.00;1.00
3208;DHT22;1616;52.394;9.756;2023-03-01T02:09:34;-2.00;1.00
3208;DHT22;1616;52.394;9.756;2023-03-01T02:12:01;-2.00;1.00
3208;DHT22;1616;52.394;9.756;2023-03-01T02:14:27;-2.10;1.00
3208;DHT22;1616;52.394;9.756;2023-03-01T02:16:53;-2.10;1.00
3208;DHT22;1616;52.394;9.756;2023-03-01T02:19:37;-2.10;1.00
3208;DHT22;1616;52.394;9.756;2023-03-01T02:22:28;-2.10;1.00
3208;DHT22;1616;52.394;9.756;2023-03-01T02:25:12;-2.10;1.00
3208;DHT22;1616;52.394;9.756;2023-03-01T02:27:55;-2.20;1.00
3208;DHT22;1616;52.394;9.756;2023-03-01T02:30:22;-2.10;1.00
3208;DHT22;1616;52.394;9.756;2023-03-01T02:32:53;-2.20;1.00
3208;DHT22;1616;52.394;9.756;2023-03-01T02:35:19;-2.10;1.00
3208;DHT22;1616;52.394;9.756;2023-03-01T02:37:46;-2.20;1.00
3208;DHT22;1616;52.394;9.756;2023-03-01T02:40:16;-2.10;1.00
3208;DHT22;1616;52.394;9.756;2023-03-01T02:42:57;-2.10;1.00
3208;DHT22;1616;52.394;9.756;2023-03-01T02:45:24;-2.00;1.00
3208;DHT22;1616;52.394;9.756;2023-03-01T02:47:50;-1.90;1.00
3208;DHT22;1616;52.394;9.756;2023-03-01T02:50:46;-1.80;1.00
3208;DHT22;1616;52.394;9.756;2023-03-01T02:53:27;-1.80;1.00
3208;DHT22;1616;52.394;9.756;2023-03-01T02:55:54;-1.80;1.00
3208;DHT22;1616;52.394;9.756;2023-03-01T02:58:19;-1.70;1.00
3208;DHT22;1616;52.394;9.756;2023-03-01T03:00:46;-1.80;1.00
3208;DHT22;1616;52.394;9.756;2023-03-01T03:03:17;-1.80;1.00
3208;DHT22;1616;52.394;9.756;2023-03-01T03:05:44;-1.80;1.00
3208;DHT22;1616;52.394;9.756;2023-03-01T03:08:10;-1.80;1.00
3208;DHT22;1616;52.394;9.756;2023-03-01T03:10:39;-1.80;1.00
3208;DHT22;1616;52.394;9.756;2023-03-01T03:13:10;-1.90;1.00
3208;DHT22;1616;52.394;9.756;2023-03-01T03:15:38;-1.90;1.00
3208;DHT22;1616;52.394;9.756;2023-03-01T03:18:07;-1.80;1.00
3208;DHT22;1616;52.394;9.756;2023-03-01T03:20:33;-1.90;1.00
3208;DHT22;1616;52.394;9.756;2023-03-01T03:22:59;-1.90;1.00
3208;DHT22;1616;52.394;9.756;2023-03-01T03:25:27;-1.90;1.00
3208;DHT22;1616;52.394;9.756;2023-03-01T03:27:54;-2.00;1.00
3208;DHT22;1616;52.394;9.756;2023-03-01T03:30:24;-2.10;1.00
3208;DHT22;1616;52.394;9.756;2023-03-01T03:32:51;-2.10;1.00
3208;DHT22;1616;52.394;9.756;2023-03-01T03:35:26;-2.20;1.00
3208;DHT22;1616;52.394;9.756;2023-03-01T03:37:55;-2.20;1.00
3208;DHT22;1616;52.394;9.756;2023-03-01T03:40:30;-2.20;1.00
3208;DHT22;1616;52.394;9.756;2023-03-01T03:42:57;-2.30;1.00
3208;DHT22;1616;52.394;9.756;2023-03-01T03:45:22;-2.30;1.00
3208;DHT22;1616;52.394;9.756;2023-03-01T03:47:48;-2.30;1.00
3208;DHT22;1616;52.394;9.756;2023-03-01T03:50:16;-2.50;1.00
3208;DHT22;1616;52.394;9.756;2023-03-01T03:52:42;-2.40;1.00
3208;DHT22;1616;52.394;9.756;2023-03-01T03:55:10;-2.40;1.00
3208;DHT22;1616;52.394;9.756;2023-03-01T03:57:38;-2.50;1.00
3208;DHT22;1616;52.394;9.756;2023-03-01T04:00:07;-2.40;1.00
3208;DHT22;1616;52.394;9.756;2023-03-01T04:02:41;-2.40;1.00
3208;DHT22;1616;52.394;9.756;2023-03-01T04:05:09;-2.40;1.00
3208;DHT22;1616;52.394;9.756;2023-03-01T04:07:35;-2.40;1.00
3208;DHT22;1616;52.394;9.756;2023-03-01T04:10:03;-2.50;1.00
3208;DHT22;1616;52.394;9.756;2023-03-01T04:12:29;-2.40;1.00
3208;DHT22;1616;52.394;9.756;2023-03-01T04:14:54;-2.40;1.00
3208;DHT22;1616;52.394;9.756;2023-03-01T04:17:20;-2.40;1.00
3208;DHT22;1616;52.394;9.756;2023-03-01T04:19:45;-2.50;1.00
3208;DHT22;1616;52.394;9.756;2023-03-01T04:22:14;-2.60;1.00
3208;DHT22;1616;52.394;9.756;2023-03-01T04:24:44;-2.50;1.00
3208;DHT22;1616;52.394;9.756;2023-03-01T04:27:10;-2.50;1.00
3208;DHT22;1616;52.394;9.756;2023-03-01T04:29:36;-2.50;1.00
3208;DHT22;1616;52.394;9.756;2023-03-01T04:32:02;-2.50;1.00
3208;DHT22;1616;52.394;9.756;2023-03-01T04:34:29;-2.50;1.00
3208;DHT22;1616;52.394;9.756;2023-03-01T04:36:55;-2.50;1.00
3208;DHT22;1616;52.394;9.756;2023-03-01T04:39:21;-2.50;1.00
3208;DHT22;1616;52.394;9.756;2023-03-01T04:41:47;-2.40;1.00
3208;DHT22;1616;52.394;9.756;2023-03-01T04:44:12;-2.40;1.00
3208;DHT22;1616;52.394;9.756;2023-03-01T04:46:39;-2.30;1.00
3208;DHT22;1616;52.394;9.756;2023-03-01T04:49:05;-2.30;1.00
3208;DHT22;1616;52.394;9.756;2023-03-01T04:51:31;-2.30;1.00
3208;DHT22;1616;52.394;9.756;2023-03-01T04:54:00;-2.30;1.00
3208;DHT22;1616;52.394;9.756;2023-03-01T04:56:26;-2.30;1.00
3208;DHT22;1616;52.394;9.756;2023-03-01T04:58:53;-2.30;1.00
3208;DHT22;1616;52.394;9.756;2023-03-01T05:01:20;-2.40;1.00
3208;DHT22;1616;52.394;9.756;2023-03-01T05:03:48;-2.30;1.00
3208;DHT22;1616;52.394;9.756;2023-03-01T05:06:15;-2.30;1.00
3208;DHT22;1616;52.394;9.756;2023-03-01T05:08:41;-2.40;1.00
3208;DHT22;1616;52.394;9.756;2023-03-01T05:11:08;-2.40;1.00
3208;DHT22;1616;52.394;9.756;2023-03-01T05:13:35;-2.50;1.00
3208;DHT22;1616;52.394;9.756;2023-03-01T05:16:02;-2.50;1.00
3208;DHT22;1616;52.394;9.756;2023-03-01T05:18:30;-2.60;1.00
3208;DHT22;1616;52.394;9.756;2023-03-01T05:21:11;-2.70;1.00
3208;DHT22;1616;52.394;9.756;2023-03-01T05:23:37;-2.70;1.00
3208;DHT22;1616;52.394;9.756;2023-03-01T05:26:04;-2.80;1.00
3208;DHT22;1616;52.394;9.756;2023-03-01T05:28:30;-2.90;1.00
3208;DHT22;1616;52.394;9.756;2023-03-01T05:30:56;-2.90;1.00
3208;DHT22;1616;52.394;9.756;2023-03-01T05:33:23;-3.00;1.00
3208;DHT22;1616;52.394;9.756;2023-03-01T05:35:50;-3.00;1.00
3208;DHT22;1616;52.394;9.756;2023-03-01T05:38:16;-3.00;1.00
3208;DHT22;1616;52.394;9.756;2023-03-01T05:40:43;-3.00;1.00
3208;DHT22;1616;52.394;9.756;2023-03-01T05:43:10;-3.10;1.00
3208;DHT22;1616;52.394;9.756;2023-03-01T05:45:39;-3.00;1.00
3208;DHT22;1616;52.394;9.756;2023-03-01T05:48:06;-3.00;1.00
3208;DHT22;1616;52.394;9.756;2023-03-01T05:50:36;-3.00;1.00
3208;DHT22;1616;52.394;9.756;2023-03-01T05:53:14;-3.00;1.00
3208;DHT22;1616;52.394;9.756;2023-03-01T05:55:40;-3.20;1.00
3208;DHT22;1616;52.394;9.756;2023-03-01T05:58:13;-3.20;1.00
3208;DHT22;1616;52.394;9.756;2023-03-01T06:00:42;-3.10;1.00
3208;DHT22;1616;52.394;9.756;2023-03-01T06:03:10;-3.10;1.00
3208;DHT22;1616;52.394;9.756;2023-03-01T06:05:36;-3.10;1.00
3208;DHT22;1616;52.394;9.756;2023-03-01T06:08:02;-3.00;1.00
3208;DHT22;1616;52.394;9.756;2023-03-01T06:10:28;-3.00;1.00
3208;DHT22;1616;52.394;9.756;2023-03-01T06:12:55;-3.00;1.00
3208;DHT22;1616;52.394;9.756;2023-03-01T06:15:21;-3.10;1.00
3208;DHT22;1616;52.394;9.756;2023-03-01T06:17:48;-3.00;1.00
3208;DHT22;1616;52.394;9.756;2023-03-01T06:20:19;-3.00;1.00
3208;DHT22;1616;52.394;9.756;2023-03-01T06:22:45;-3.00;1.00
3208;DHT22;1616;52.394;9.756;2023-03-01T06:25:14;-2.90;1.00
3208;DHT22;1616;52.394;9.756;2023-03-01T06:27:40;-2.90;1.00
3208;DHT22;1616;52.394;9.756;2023-03-01T06:30:08;-2.70;1.00
3208;DHT22;1616;52.394;9.756;2023-03-01T06:32:35;-2.50;1.00
3208;DHT22;1616;52.394;9.756;2023-03-01T06:35:00;-2.30;1.00
3208;DHT22;1616;52.394;9.756;2023-03-01T06:37:26;-2.20;1.00
3208;DHT22;1616;52.394;9.756;2023-03-01T06:39:52;-2.20;1.00
3208;DHT22;1616;52.394;9.756;2023-03-01T06:42:17;-2.10;1.00
3208;DHT22;1616;52.394;9.756;2023-03-01T06:44:44;-2.00;1.00
3208;DHT22;1616;52.394;9.756;2023-03-01T06:47:10;-1.90;1.00
3208;DHT22;1616;52.394;9.756;2023-03-01T06:49:35;-1.80;1.00
3208;DHT22;1616;52.394;9.756;2023-03-01T06:52:01;-1.80;1.00
3208;DHT22;1616;52.394;9.756;2023-03-01T06:54:26;-1.60;1.00
3208;DHT22;1616;52.394;9.756;2023-03-01T06:56:52;-1.50;1.00
3208;DHT22;1616;52.394;9.756;2023-03-01T06:59:18;-1.30;1.00
3208;DHT22;1616;52.394;9.756;2023-03-01T07:01:44;-0.90;1.00
3208;DHT22;1616;52.394;9.756;2023-03-01T07:04:10;-0.10;1.00
3208;DHT22;1616;52.394;9.756;2023-03-01T07:06:36;0.80;1.00
3208;DHT22;1616;52.394;9.756;2023-03-01T07:09:02;1.90;1.00
3208;DHT22;1616;52.394;9.756;2023-03-01T07:11:28;3.00;1.00
3208;DHT22;1616;52.394;9.756;2023-03-01T07:13:54;3.90;1.00
3208;DHT22;1616;52.394;9.756;2023-03-01T07:16:20;4.90;1.00
3208;DHT22;1616;52.394;9.756;2023-03-01T07:18:46;5.70;1.00
3208;DHT22;1616;52.394;9.756;2023-03-01T07:21:14;6.50;1.00
3208;DHT22;1616;52.394;9.756;2023-03-01T07:23:40;7.20;1.00
3208;DHT22;1616;52.394;9.756;2023-03-01T07:26:06;7.90;1.00
3208;DHT22;1616;52.394;9.756;2023-03-01T07:28:31;8.40;1.00
3208;DHT22;1616;52.394;9.756;2023-03-01T07:31:02;9.00;1.00
3208;DHT22;1616;52.394;9.756;2023-03-01T07:33:28;9.50;1.00
3208;DHT22;1616;52.394;9.756;2023-03-01T07:36:01;10.10;1.00
3208;DHT22;1616;52.394;9.756;2023-03-01T07:38:28;10.60;1.00
3208;DHT22;1616;52.394;9.756;2023-03-01T07:40:58;11.00;1.00
3208;DHT22;1616;52.394;9.756;2023-03-01T07:43:24;11.40;1.00
3208;DHT22;1616;52.394;9.756;2023-03-01T07:45:49;11.60;1.00
3208;DHT22;1616;52.394;9.756;2023-03-01T07:48:15;11.90;1.00
3208;DHT22;1616;52.394;9.756;2023-03-01T07:50:41;12.00;1.00
3208;DHT22;1616;52.394;9.756;2023-03-01T07:53:06;12.20;1.00
3208;DHT22;1616;52.394;9.756;2023-03-01T07:55:33;12.40;1.00
3208;DHT22;1616;52.394;9.756;2023-03-01T07:58:00;12.60;1.00
3208;DHT22;1616;52.394;9.756;2023-03-01T08:00:25;12.90;1.00
3208;DHT22;1616;52.394;9.756;2023-03-01T08:02:51;13.20;1.00
3208;DHT22;1616;52.394;9.756;2023-03-01T08:05:17;13.50;1.00
3208;DHT22;1616;52.394;9.756;2023-03-01T08:07:43;13.70;1.00
3208;DHT22;1616;52.394;9.756;2023-03-01T08:10:12;14.00;1.00
3208;DHT22;1616;52.394;9.756;2023-03-01T08:12:37;14.30;1.00
3208;DHT22;1616;52.394;9.756;2023-03-01T08:15:03;14.60;1.00
3208;DHT22;1616;52.394;9.756;2023-03-01T08:17:29;14.70;1.00
3208;DHT22;1616;52.394;9.756;2023-03-01T08:19:54;14.90;1.00
3208;DHT22;1616;52.394;9.756;2023-03-01T08:22:20;15.10;1.00
3208;DHT22;1616;52.394;9.756;2023-03-01T08:24:46;15.20;1.00
3208;DHT22;1616;52.394;9.756;2023-03-01T08:27:12;15.40;1.00
3208;DHT22;1616;52.394;9.756;2023-03-01T08:29:38;15.70;1.00
3208;DHT22;1616;52.394;9.756;2023-03-01T08:32:04;15.90;1.00
3208;DHT22;1616;52.394;9.756;2023-03-01T08:34:30;16.00;1.00
3208;DHT22;1616;52.394;9.756;2023-03-01T08:36:56;16.20;1.00
3208;DHT22;1616;52.394;9.756;2023-03-01T08:39:22;16.40;1.00
3208;DHT22;1616;52.394;9.756;2023-03-01T08:41:48;16.60;1.00
3208;DHT22;1616;52.394;9.756;2023-03-01T08:44:15;16.80;1.00
3208;DHT22;1616;52.394;9.756;2023-03-01T08:46:42;16.90;1.00
3208;DHT22;1616;52.394;9.756;2023-03-01T08:49:14;17.10;1.00
3208;DHT22;1616;52.394;9.756;2023-03-01T08:51:40;17.40;1.00
3208;DHT22;1616;52.394;9.756;2023-03-01T08:54:09;17.60;1.00
3208;DHT22;1616;52.394;9.756;2023-03-01T08:56:36;17.90;1.00
3208;DHT22;1616;52.394;9.756;2023-03-01T08:59:02;18.10;1.00
3208;DHT22;1616;52.394;9.756;2023-03-01T09:01:28;18.20;1.00
3208;DHT22;1616;52.394;9.756;2023-03-01T09:03:53;18.40;1.00
3208;DHT22;1616;52.394;9.756;2023-03-01T09:06:19;18.60;1.00
3208;DHT22;1616;52.394;9.756;2023-03-01T09:08:47;18.70;1.00
3208;DHT22;1616;52.394;9.756;2023-03-01T09:11:15;18.70;1.00
3208;DHT22;1616;52.394;9.756;2023-03-01T09:13:42;18.80;1.00
3208;DHT22;1616;52.394;9.756;2023-03-01T09:16:08;18.80;1.00
3208;DHT22;1616;52.394;9.756;2023-03-01T09:18:34;19.00;1.00
3208;DHT22;1616;52.394;9.756;2023-03-01T09:21:06;19.10;1.00
3208;DHT22;1616;52.394;9.756;2023-03-01T09:23:40;19.30;1.00
3208;DHT22;1616;52.394;9.756;2023-03-01T09:26:16;19.40;1.00
3208;DHT22;1616;52.394;9.756;2023-03-01T09:28:45;19.60;1.00
3208;DHT22;1616;52.394;9.756;2023-03-01T09:31:12;19.80;1.00
3208;DHT22;1616;52.394;9.756;2023-03-01T09:33:39;19.80;1.00
3208;DHT22;1616;52.394;9.756;2023-03-01T09:36:17;19.90;1.00
3208;DHT22;1616;52.394;9.756;2023-03-01T09:38:43;19.90;1.00
3208;DHT22;1616;52.394;9.756;2023-03-01T09:44:13;19.90;1.00
3208;DHT22;1616;52.394;9.756;2023-03-01T09:46:43;20.00;1.00
3208;DHT22;1616;52.394;9.756;2023-03-01T09:49:19;20.10;1.00
3208;DHT22;1616;52.394;9.756;2023-03-01T09:52:12;20.30;1.00
3208;DHT22;1616;52.394;9.756;2023-03-01T09:54:39;20.50;1.00
3208;DHT22;1616;52.394;9.756;2023-03-01T10:04:55;20.60;1.00
3208;DHT22;1616;52.394;9.756;2023-03-01T10:10:25;20.70;1.00
3208;DHT22;1616;52.394;9.756;2023-03-01T10:12:52;20.70;1.00
3208;DHT22;1616;52.394;9.756;2023-03-01T10:15:25;20.70;1.00
3208;DHT22;1616;52.394;9.756;2023-03-01T10:17:56;20.60;1.00
3208;DHT22;1616;52.394;9.756;2023-03-01T10:20:32;20.40;1.00
3208;DHT22;1616;52.394;9.756;2023-03-01T10:22:59;20.40;1.00
3208;DHT22;1616;52.394;9.756;2023-03-01T10:25:41;20.50;1.00
3208;DHT22;1616;52.394;9.756;2023-03-01T10:28:31;20.60;1.00
3208;DHT22;1616;52.394;9.756;2023-03-01T10:31:00;20.60;1.00
3208;DHT22;1616;52.394;9.756;2023-03-01T10:33:36;20.70;1.00
3208;DHT22;1616;52.394;9.756;2023-03-01T10:36:03;20.90;1.00
3208;DHT22;1616;52.394;9.756;2023-03-01T10:38:31;21.00;1.00
3208;DHT22;1616;52.394;9.756;2023-03-01T10:41:12;21.20;1.00
3208;DHT22;1616;52.394;9.756;2023-03-01T10:43:46;21.40;1.00
3208;DHT22;1616;52.394;9.756;2023-03-01T10:49:18;21.30;1.00
3208;DHT22;1616;52.394;9.756;2023-03-01T10:51:46;21.30;1.00
3208;DHT22;1616;52.394;9.756;2023-03-01T10:54:25;21.30;1.00
3208;DHT22;1616;52.394;9.756;2023-03-01T10:56:57;21.40;1.00
3208;DHT22;1616;52.394;9.756;2023-03-01T11:08:07;21.60;1.00
3208;DHT22;1616;52.394;9.756;2023-03-01T11:10:36;21.60;1.00
3208;DHT22;1616;52.394;9.756;2023-03-01T11:13:16;21.60;1.00
3208;DHT22;1616;52.394;9.756;2023-03-01T11:15:43;21.70;1.00
3208;DHT22;1616;52.394;9.756;2023-03-01T11:18:22;21.90;1.00
3208;DHT22;1616;52.394;9.756;2023-03-01T11:20:49;22.00;1.00
3208;DHT22;1616;52.394;9.756;2023-03-01T11:23:17;21.90;1.00
3208;DHT22;1616;52.394;9.756;2023-03-01T11:26:05;21.90;1.00
3208;DHT22;1616;52.394;9.756;2023-03-01T11:28:32;21.90;1.00
3208;DHT22;1616;52.394;9.756;2023-03-01T11:31:03;22.10;1.00
3208;DHT22;1616;52.394;9.756;2023-03-01T11:36:07;22.10;1.00
3208;DHT22;1616;52.394;9.756;2023-03-01T11:38:36;21.80;1.00
3208;DHT22;1616;52.394;9.756;2023-03-01T11:41:14;21.50;1.00
3208;DHT22;1616;52.394;9.756;2023-03-01T11:46:36;21.20;1.00
3208;DHT22;1616;52.394;9.756;2023-03-01T11:49:31;20.90;1.00
3208;DHT22;1616;52.394;9.756;2023-03-01T11:52:17;20.70;1.00
3208;DHT22;1616;52.394;9.756;2023-03-01T11:55:14;20.50;1.00
3208;DHT22;1616;52.394;9.756;2023-03-01T11:57:47;20.40;1.00
3208;DHT22;1616;52.394;9.756;2023-03-01T12:03:14;20.30;1.00
3208;DHT22;1616;52.394;9.756;2023-03-01T12:05:51;20.40;1.00
3208;DHT22;1616;52.394;9.756;2023-03-01T12:08:45;20.30;1.00
3208;DHT22;1616;52.394;9.756;2023-03-01T12:14:43;20.30;1.00
3208;DHT22;1616;52.394;9.756;2023-03-01T12:17:18;19.90;1.00
3208;DHT22;1616;52.394;9.756;2023-03-01T12:22:45;19.80;1.00
3208;DHT22;1616;52.394;9.756;2023-03-01T12:25:25;19.90;1.00
3208;DHT22;1616;52.394;9.756;2023-03-01T12:30:45;20.00;1.00
3208;DHT22;1616;52.394;9.756;2023-03-01T12:33:32;19.80;1.00
3208;DHT22;1616;52.394;9.756;2023-03-01T12:36:13;19.50;1.00
3208;DHT22;1616;52.394;9.756;2023-03-01T12:38:47;19.30;1.00
3208;DHT22;1616;52.394;9.756;2023-03-01T12:44:20;18.80;1.00
3208;DHT22;1616;52.394;9.756;2023-03-01T12:47:03;18.60;1.00
3208;DHT22;1616;52.394;9.756;2023-03-01T12:49:45;18.50;1.00
3208;DHT22;1616;52.394;9.756;2023-03-01T12:52:51;18.40;1.00
3208;DHT22;1616;52.394;9.756;2023-03-01T12:55:38;18.00;1.00
3208;DHT22;1616;52.394;9.756;2023-03-01T13:04:16;16.90;1.00
3208;DHT22;1616;52.394;9.756;2023-03-01T13:07:13;16.60;1.00
3208;DHT22;1616;52.394;9.756;2023-03-01T13:10:17;16.40;1.00
3208;DHT22;1616;52.394;9.756;2023-03-01T13:17:49;14.90;1.00
3208;DHT22;1616;52.394;9.756;2023-03-01T13:20:26;14.50;1.00
3208;DHT22;1616;52.394;9.756;2023-03-01T13:26:01;13.70;1.00
3208;DHT22;1616;52.394;9.756;2023-03-01T13:31:04;12.80;1.00
3208;DHT22;1616;52.394;9.756;2023-03-01T13:35:57;12.00;1.00
3208;DHT22;1616;52.394;9.756;2023-03-01T13:41:12;11.20;1.00
3208;DHT22;1616;52.394;9.756;2023-03-01T13:43:41;10.90;1.00
3208;DHT22;1616;52.394;9.756;2023-03-01T13:46:21;10.50;1.00
3208;DHT22;1616;52.394;9.756;2023-03-01T13:48:51;10.20;1.00
3208;DHT22;1616;52.394;9.756;2023-03-01T13:51:25;9.90;1.00
3208;DHT22;1616;52.394;9.756;2023-03-01T13:53:52;9.70;1.00
3208;DHT22;1616;52.394;9.756;2023-03-01T13:56:28;9.40;1.00
3208;DHT22;1616;52.394;9.756;2023-03-01T13:59:17;9.20;1.00
3208;DHT22;1616;52.394;9.756;2023-03-01T14:01:43;9.00;1.00
3208;DHT22;1616;52.394;9.756;2023-03-01T14:04:25;8.90;1.00
3208;DHT22;1616;52.394;9.756;2023-03-01T14:07:12;8.80;1.00
3208;DHT22;1616;52.394;9.756;2023-03-01T14:09:41;8.70;1.00
3208;DHT22;1616;52.394;9.756;2023-03-01T14:12:23;8.60;1.00
3208;DHT22;1616;52.394;9.756;2023-03-01T14:20:16;8.40;1.00
3208;DHT22;1616;52.394;9.756;2023-03-01T14:22:43;8.30;1.00
3208;DHT22;1616;52.394;9.756;2023-03-01T14:25:29;8.30;1.00
3208;DHT22;1616;52.394;9.756;2023-03-01T14:30:46;8.30;1.00
3208;DHT22;1616;52.394;9.756;2023-03-01T14:35:55;8.30;1.00
3208;DHT22;1616;52.394;9.756;2023-03-01T14:38:27;8.30;1.00
3208;DHT22;1616;52.394;9.756;2023-03-01T14:40:59;8.30;1.00
3208;DHT22;1616;52.394;9.756;2023-03-01T14:43:27;8.30;1.00
3208;DHT22;1616;52.394;9.756;2023-03-01T14:45:54;8.40;1.00
3208;DHT22;1616;52.394;9.756;2023-03-01T14:48:21;8.30;1.00
3208;DHT22;1616;52.394;9.756;2023-03-01T14:50:47;8.30;1.00
3208;DHT22;1616;52.394;9.756;2023-03-01T14:53:20;8.30;1.00
3208;DHT22;1616;52.394;9.756;2023-03-01T14:55:50;8.30;1.00
3208;DHT22;1616;52.394;9.756;2023-03-01T14:58:21;8.30;1.00
3208;DHT22;1616;52.394;9.756;2023-03-01T15:00:53;8.30;1.00
3208;DHT22;1616;52.394;9.756;2023-03-01T15:03:41;8.30;1.00
3208;DHT22;1616;52.394;9.756;2023-03-01T15:06:09;8.20;1.00
3208;DHT22;1616;52.394;9.756;2023-03-01T15:08:35;8.20;1.00
3208;DHT22;1616;52.394;9.756;2023-03-01T15:11:29;8.20;1.00
3208;DHT22;1616;52.394;9.756;2023-03-01T15:13:55;8.20;1.00
3208;DHT22;1616;52.394;9.756;2023-03-01T15:16:32;9.20;1.00
3208;DHT22;1616;52.394;9.756;2023-03-01T15:19:04;8.10;1.00
3208;DHT22;1616;52.394;9.756;2023-03-01T15:21:34;8.10;1.00
3208;DHT22;1616;52.394;9.756;2023-03-01T15:24:23;8.10;1.00
3208;DHT22;1616;52.394;9.756;2023-03-01T15:26:54;8.00;1.00
3208;DHT22;1616;52.394;9.756;2023-03-01T15:29:26;8.00;1.00
3208;DHT22;1616;52.394;9.756;2023-03-01T15:32:06;8.00;1.00
3208;DHT22;1616;52.394;9.756;2023-03-01T15:34:48;8.00;1.00
3208;DHT22;1616;52.394;9.756;2023-03-01T15:40:01;8.00;1.00
3208;DHT22;1616;52.394;9.756;2023-03-01T15:45:28;7.90;1.00
3208;DHT22;1616;52.394;9.756;2023-03-01T15:47:56;7.90;1.00
3208;DHT22;1616;52.394;9.756;2023-03-01T15:50:32;7.90;1.00
3208;DHT22;1616;52.394;9.756;2023-03-01T15:53:00;7.90;1.00
3208;DHT22;1616;52.394;9.756;2023-03-01T15:55:28;7.90;1.00
3208;DHT22;1616;52.394;9.756;2023-03-01T15:58:10;7.90;1.00
3208;DHT22;1616;52.394;9.756;2023-03-01T16:00:35;7.80;1.00
3208;DHT22;1616;52.394;9.756;2023-03-01T16:03:01;7.90;1.00
3208;DHT22;1616;52.394;9.756;2023-03-01T16:05:32;7.80;1.00
3208;DHT22;1616;52.394;9.756;2023-03-01T16:08:00;7.80;1.00
3208;DHT22;1616;52.394;9.756;2023-03-01T16:10:26;7.80;1.00
3208;DHT22;1616;52.394;9.756;2023-03-01T16:12:52;7.70;1.00
3208;DHT22;1616;52.394;9.756;2023-03-01T16:15:27;7.70;1.00
3208;DHT22;1616;52.394;9.756;2023-03-01T16:17:56;7.50;1.00
3208;DHT22;1616;52.394;9.756;2023-03-01T16:20:24;7.60;1.00
3208;DHT22;1616;52.394;9.756;2023-03-01T16:22:50;7.50;1.00
3208;DHT22;1616;52.394;9.756;2023-03-01T16:25:17;7.50;1.00
3208;DHT22;1616;52.394;9.756;2023-03-01T16:27:44;7.40;1.00
3208;DHT22;1616;52.394;9.756;2023-03-01T16:30:11;7.40;1.00
3208;DHT22;1616;52.394;9.756;2023-03-01T16:32:42;7.40;1.00
3208;DHT22;1616;52.394;9.756;2023-03-01T16:35:10;7.30;1.00
3208;DHT22;1616;52.394;9.756;2023-03-01T16:37:36;7.30;1.00
3208;DHT22;1616;52.394;9.756;2023-03-01T16:40:11;7.20;1.00
3208;DHT22;1616;52.394;9.756;2023-03-01T16:42:40;7.20;1.00
3208;DHT22;1616;52.394;9.756;2023-03-01T16:45:08;7.10;1.00
3208;DHT22;1616;52.394;9.756;2023-03-01T16:47:34;7.00;1.00
3208;DHT22;1616;52.394;9.756;2023-03-01T16:50:00;7.60;1.00
3208;DHT22;1616;52.394;9.756;2023-03-01T16:52:25;6.90;1.00
3208;DHT22;1616;52.394;9.756;2023-03-01T16:54:51;6.90;1.00
3208;DHT22;1616;52.394;9.756;2023-03-01T16:57:17;6.80;1.00
3208;DHT22;1616;52.394;9.756;2023-03-01T16:59:43;6.70;1.00
3208;DHT22;1616;52.394;9.756;2023-03-01T17:02:11;6.60;1.00
3208;DHT22;1616;52.394;9.756;2023-03-01T17:04:39;6.50;1.00
3208;DHT22;1616;52.394;9.756;2023-03-01T17:07:05;6.40;1.00
3208;DHT22;1616;52.394;9.756;2023-03-01T17:09:34;6.30;1.00
3208;DHT22;1616;52.394;9.756;2023-03-01T17:12:00;6.20;1.00
3208;DHT22;1616;52.394;9.756;2023-03-01T17:14:26;6.10;1.00
3208;DHT22;1616;52.394;9.756;2023-03-01T17:16:51;6.00;1.00
3208;DHT22;1616;52.394;9.756;2023-03-01T17:19:18;5.90;1.00
3208;DHT22;1616;52.394;9.756;2023-03-01T17:21:45;5.80;1.00
3208;DHT22;1616;52.394;9.756;2023-03-01T17:24:10;5.70;1.00
3208;DHT22;1616;52.394;9.756;2023-03-01T17:26:37;5.70;1.00
3208;DHT22;1616;52.394;9.756;2023-03-01T17:29:03;5.60;1.00
3208;DHT22;1616;52.394;9.756;2023-03-01T17:31:30;5.50;1.00
3208;DHT22;1616;52.394;9.756;2023-03-01T17:33:56;5.40;1.00
3208;DHT22;1616;52.394;9.756;2023-03-01T17:36:21;5.40;1.00
3208;DHT22;1616;52.394;9.756;2023-03-01T17:38:47;5.20;1.00
3208;DHT22;1616;52.394;9.756;2023-03-01T17:41:14;5.20;1.00
3208;DHT22;1616;52.394;9.756;2023-03-01T17:43:46;5.20;1.00
3208;DHT22;1616;52.394;9.756;2023-03-01T17:46:12;5.10;1.00
3208;DHT22;1616;52.394;9.756;2023-03-01T17:48:38;5.00;1.00
3208;DHT22;1616;52.394;9.756;2023-03-01T17:51:06;4.90;1.00
3208;DHT22;1616;52.394;9.756;2023-03-01T17:53:32;4.90;1.00
3208;DHT22;1616;52.394;9.756;2023-03-01T17:56:03;4.80;1.00
3208;DHT22;1616;52.394;9.756;2023-03-01T17:58:30;4.70;1.00
3208;DHT22;1616;52.394;9.756;2023-03-01T18:01:09;4.60;1.00
3208;DHT22;1616;52.394;9.756;2023-03-01T18:03:35;4.50;1.00
3208;DHT22;1616;52.394;9.756;2023-03-01T18:06:01;4.50;1.00